Time;durP1;ratioP1;P1;durP2;ratioP2;P2;SDS_P1;SDS_P2;PMS_P1;PMS_P2;Temp;Humidity;BMP_temperature;BMP_pressure;BME280_temperature;BME280_humidity;BME280_pressure;Samples;Min_cycle;Max_cycle;Signal;HPM_P1;HPM_P2
2022/11/10 00:01:02;;;;;;;5.15;2.20;;;;;;;7.80;100.00;94285.25;4876070;29;20992;-54
2022/11/10 00:03:29;;;;;;;4.90;2.08;;;;;;;7.86;100.00;94291.13;4876125;29;20049;-58
2022/11/10 00:05:56;;;;;;;4.40;1.80;;;;;;;7.83;100.00;94291.94;4876566;29;20045;-55
2022/11/10 00:08:22;;;;;;;4.87;1.80;;;;;;;7.77;100.00;94296.97;4876061;29;20128;-54
2022/11/10 00:11:00;;;;;;;4.85;1.85;;;;;;;7.72;100.00;94293.84;4876401;29;20108;-54
2022/11/10 00:13:32;;;;;;;4.13;1.80;;;;;;;7.77;100.00;94296.97;4877186;29;20107;-53
2022/11/10 00:18:49;;;;;;;4.40;1.50;;;;;;;7.96;100.00;94308.72;4876374;29;20525;-56
2022/11/10 00:21:17;;;;;;;4.60;1.60;;;;;;;8.00;100.00;94306.75;4877158;29;20049;-53
2022/11/10 00:23:46;;;;;;;2.90;1.40;;;;;;;8.05;100.00;94305.59;4872850;29;20053;-56
2022/11/10 00:26:15;;;;;;;4.30;2.08;;;;;;;8.13;100.00;94301.69;4856666;29;20058;-57
2022/11/10 00:28:43;;;;;;;5.10;2.83;;;;;;;8.04;100.00;94306.78;4850952;29;20392;-57
2022/11/10 00:31:10;;;;;;;3.75;1.60;;;;;;;8.06;100.00;94307.16;4866661;29;20493;-58
2022/11/10 00:33:39;;;;;;;4.77;2.07;;;;;;;7.90;100.00;94302.84;4894556;29;20048;-57
2022/11/10 00:36:06;;;;;;;4.32;2.40;;;;;;;7.91;100.00;94303.66;4895140;29;20045;-53
2022/11/10 00:38:33;;;;;;;3.53;2.22;;;;;;;7.88;100.00;94302.44;4894498;29;20063;-58
2022/11/10 00:41:00;;;;;;;3.33;1.70;;;;;;;7.92;100.00;94305.19;4912300;29;20048;-53
2022/11/10 00:43:27;;;;;;;4.53;1.75;;;;;;;7.91;100.00;94306.38;4913943;29;20044;-56
2022/11/10 00:45:55;;;;;;;4.20;2.10;;;;;;;7.97;100.00;94302.88;4913409;29;20047;-56
2022/11/10 00:48:22;;;;;;;7.18;3.55;;;;;;;8.02;100.00;94306.38;4913959;29;20048;-53
2022/11/10 00:50:49;;;;;;;4.40;2.33;;;;;;;8.04;100.00;94318.47;4913071;29;20051;-53
2022/11/10 00:53:16;;;;;;;4.15;1.98;;;;;;;8.10;100.00;94316.16;4913776;29;20051;-52
2022/11/10 00:55:43;;;;;;;6.50;3.00;;;;;;;7.98;100.00;94320.03;4912975;29;20083;-58
2022/11/10 00:58:09;;;;;;;6.40;1.80;;;;;;;7.89;100.00;94325.88;4897078;29;20046;-57
2022/11/10 01:00:36;;;;;;;4.70;2.05;;;;;;;7.93;100.00;94331.38;4913350;29;20048;-56
2022/11/10 01:03:03;;;;;;;4.45;2.25;;;;;;;7.98;100.00;94323.53;4913588;29;20040;-55
2022/11/10 01:05:30;;;;;;;6.40;3.30;;;;;;;8.03;100.00;94325.13;4913382;29;20511;-54
2022/11/10 01:07:58;;;;;;;5.80;3.40;;;;;;;8.08;100.00;94329.44;4912474;29;20685;-55
2022/11/10 01:10:25;;;;;;;4.47;1.70;;;;;;;8.04;100.00;94331.38;4913456;29;20485;-54
2022/11/10 01:12:52;;;;;;;3.53;2.00;;;;;;;7.84;100.00;94330.94;4912525;29;20079;-56
2022/11/10 01:15:20;;;;;;;5.50;1.80;;;;;;;7.95;100.00;94340.72;4913462;29;20405;-53
2022/11/10 01:17:54;;;;;;;12.98;5.15;;;;;;;8.00;100.00;94337.59;4912453;29;20111;-58
2022/11/10 01:20:22;;;;;;;10.32;5.10;;;;;;;7.89;100.00;94342.28;4913304;29;20143;-58
2022/11/10 01:22:48;;;;;;;5.67;2.17;;;;;;;7.86;100.00;94343.03;4912749;29;20495;-54
2022/11/10 01:25:15;;;;;;;4.97;1.20;;;;;;;7.78;100.00;94346.94;4913183;29;20044;-57
2022/11/10 01:27:42;;;;;;;3.55;1.27;;;;;;;7.68;100.00;94353.16;4912557;29;20054;-55
2022/11/10 01:30:09;;;;;;;5.85;1.50;;;;;;;7.60;100.00;94353.13;4913179;29;20044;-55
2022/11/10 01:32:35;;;;;;;3.90;1.40;;;;;;;7.54;100.00;94356.63;4895456;29;20077;-54
2022/11/10 01:35:02;;;;;;;2.57;1.30;;;;;;;7.42;100.00;94362.44;4912969;29;20508;-55
2022/11/10 01:37:29;;;;;;;3.38;1.40;;;;;;;7.29;100.00;94364.72;4912984;29;20048;-53
2022/11/10 01:39:55;;;;;;;4.10;1.60;;;;;;;7.13;100.00;94365.81;4903376;29;20403;-57
2022/11/10 01:42:28;;;;;;;8.23;1.50;;;;;;;7.05;100.00;94374.34;4894219;29;20435;-54
2022/11/10 01:45:33;;;;;;;4.20;1.50;;;;;;;6.98;100.00;94366.91;4893182;29;20049;-53
2022/11/10 01:48:04;;;;;;;2.87;1.30;;;;;;;6.87;100.00;94374.25;4892669;29;21512;-55
2022/11/10 01:50:37;;;;;;;2.88;1.45;;;;;;;6.85;100.00;94379.31;4894181;29;20049;-54
2022/11/10 01:53:08;;;;;;;2.50;1.30;;;;;;;6.80;100.00;94381.22;4892642;29;20780;-54
2022/11/10 01:55:37;;;;;;;3.83;1.33;;;;;;;6.74;100.00;94384.66;4893321;29;20434;-52
2022/11/10 01:58:04;;;;;;;5.40;1.45;;;;;;;6.67;100.00;94377.22;4877073;29;20051;-56
2022/11/10 02:00:31;;;;;;;6.10;1.57;;;;;;;6.63;100.00;94381.88;4893844;29;20049;-56
2022/11/10 02:03:30;;;;;;;3.30;1.50;;;;;;;6.38;100.00;94384.44;4892622;29;20296;-54
2022/11/10 02:05:57;;;;;;;4.03;1.45;;;;;;;6.37;100.00;94386.34;4892559;29;20462;-53
2022/11/10 02:08:24;;;;;;;3.92;1.50;;;;;;;6.29;100.00;94390.19;4893541;29;20056;-58
2022/11/10 02:10:51;;;;;;;5.32;1.77;;;;;;;6.23;100.00;94393.63;4891822;29;20483;-56
2022/11/10 02:13:18;;;;;;;6.73;2.90;;;;;;;6.16;100.00;94386.97;4893792;29;20049;-54
2022/11/10 02:15:45;;;;;;;23.00;10.48;;;;;;;6.17;100.00;94396.69;4892987;29;20475;-55
2022/11/10 02:18:12;;;;;;;6.95;2.45;;;;;;;6.09;100.00;94395.06;4893514;29;20490;-57
2022/11/10 02:20:43;;;;;;;3.50;1.67;;;;;;;6.00;100.00;94397.31;4893119;29;20056;-56
2022/11/10 02:23:29;;;;;;;5.25;1.65;;;;;;;5.95;100.00;94403.88;4893582;29;20051;-53
2022/11/10 02:25:56;;;;;;;3.77;1.40;;;;;;;5.86;100.00;94408.03;4892801;29;20053;-53
2022/11/10 02:28:24;;;;;;;2.80;1.27;;;;;;;5.83;100.00;94412.28;4893455;29;20070;-55
2022/11/10 02:30:52;;;;;;;3.83;1.50;;;;;;;5.73;100.00;94404.78;4892350;29;20517;-56
2022/11/10 02:33:19;;;;;;;3.40;1.45;;;;;;;5.64;100.00;94409.75;4846232;29;20057;-57
2022/11/10 02:35:47;;;;;;;4.75;1.83;;;;;;;5.59;100.00;94414.38;4892682;29;20058;-55
2022/11/10 02:38:13;;;;;;;3.30;1.50;;;;;;;5.42;100.00;94417.66;4861737;29;20453;-58
2022/11/10 02:40:40;;;;;;;4.07;1.52;;;;;;;5.48;100.00;94426.28;4907652;29;20054;-53
2022/11/10 02:43:11;;;;;;;3.95;1.70;;;;;;;5.45;100.00;94424.28;4895245;29;20102;-56
2022/11/10 02:45:44;;;;;;;3.38;1.88;;;;;;;5.44;100.00;94428.19;4911791;29;20106;-54
2022/11/10 02:48:12;;;;;;;4.38;2.35;;;;;;;5.42;100.00;94433.22;4912214;29;20051;-58
2022/11/10 02:50:39;;;;;;;4.37;1.70;;;;;;;5.39;100.00;94432.78;4911494;29;20058;-56
2022/11/10 02:53:12;;;;;;;3.80;1.67;;;;;;;5.29;100.00;94429.91;4912036;29;20048;-54
2022/11/10 02:55:38;;;;;;;4.07;1.67;;;;;;;5.19;100.00;94432.16;4894579;29;20048;-55
2022/11/10 02:58:05;;;;;;;5.00;1.50;;;;;;;5.23;100.00;94432.16;4911694;29;20051;-51
2022/11/10 03:00:32;;;;;;;5.90;1.60;;;;;;;5.25;100.00;94431.81;4911452;29;20075;-58
2022/11/10 03:03:00;;;;;;;5.27;1.87;;;;;;;5.24;100.00;94441.13;4895136;29;20051;-54
2022/11/10 03:05:31;;;;;;;4.47;1.77;;;;;;;5.14;100.00;94446.06;4912152;29;20056;-56
2022/11/10 03:08:00;;;;;;;3.35;1.50;;;;;;;4.98;100.00;94451.66;4914242;29;20698;-53
2022/11/10 03:10:28;;;;;;;4.72;1.90;;;;;;;4.96;100.00;94451.22;4915708;29;20058;-55
2022/11/10 03:12:57;;;;;;;4.35;1.80;;;;;;;4.96;100.00;94461.34;4914621;29;20095;-57
2022/11/10 03:15:24;;;;;;;4.47;2.37;;;;;;;4.93;100.00;94462.88;4914447;29;20052;-55
2022/11/10 03:17:51;;;;;;;5.97;2.60;;;;;;;4.86;100.00;94468.19;4914876;29;20476;-56
2022/11/10 03:20:18;;;;;;;4.60;2.10;;;;;;;4.89;100.00;94466.66;4915672;29;20048;-52
2022/11/10 03:22:45;;;;;;;5.35;2.17;;;;;;;4.87;100.00;94463.53;4914942;29;20056;-59
2022/11/10 03:25:12;;;;;;;4.13;2.05;;;;;;;4.48;100.00;94480.78;4915422;29;20056;-53
2022/11/10 03:27:39;;;;;;;4.20;1.80;;;;;;;4.53;100.00;94479.72;4914881;29;20052;-55
2022/11/10 03:30:06;;;;;;;5.78;2.00;;;;;;;4.50;100.00;94477.69;4914962;29;20701;-56
2022/11/10 03:32:33;;;;;;;5.00;2.00;;;;;;;4.50;100.00;94483.13;4914481;29;20056;-53
2022/11/10 03:35:00;;;;;;;4.45;1.95;;;;;;;4.51;100.00;94482.78;4915008;29;20044;-52
2022/11/10 03:37:26;;;;;;;6.80;2.40;;;;;;;4.52;100.00;94481.63;4915188;29;20058;-51
2022/11/10 03:39:53;;;;;;;4.47;1.90;;;;;;;4.50;100.00;94494.78;4914192;29;20052;-52
2022/11/10 03:42:20;;;;;;;4.72;1.90;;;;;;;4.32;100.00;94488.25;4915001;29;20482;-53
2022/11/10 03:44:47;;;;;;;4.00;1.70;;;;;;;4.15;100.00;94487.59;4914583;29;20428;-57
2022/11/10 03:47:13;;;;;;;3.38;2.10;;;;;;;4.10;100.00;94492.53;4915148;29;20048;-54
2022/11/10 03:49:40;;;;;;;3.90;1.90;;;;;;;4.06;100.00;94495.16;4914652;29;20044;-54
2022/11/10 03:52:07;;;;;;;5.07;1.80;;;;;;;4.13;100.00;94499.97;4914554;29;20052;-49
2022/11/10 03:54:33;;;;;;;4.95;2.15;;;;;;;4.17;100.00;94503.53;4905387;29;20469;-56
2022/11/10 03:57:00;;;;;;;6.55;2.47;;;;;;;4.19;100.00;94510.16;4896383;29;20052;-54
2022/11/10 03:59:27;;;;;;;6.25;2.08;;;;;;;4.22;100.00;94503.22;4879379;29;20047;-50
2022/11/10 04:01:53;;;;;;;12.15;2.25;;;;;;;4.03;100.00;94512.19;4894962;29;20040;-51
2022/11/10 04:09:53;;;;;;;18.77;2.53;;;;;;;3.97;100.00;94522.56;4894942;29;20041;-47
2022/11/10 04:17:51;;;;;;;72.07;5.17;;;;;;;3.84;100.00;94533.91;4894667;29;20049;-56
2022/11/10 04:20:17;;;;;;;26.02;3.28;;;;;;;3.80;100.00;94537.34;4878926;29;20056;-53
2022/11/10 04:26:27;;;;;;;49.75;2.80;;;;;;;3.54;100.00;94540.69;4895420;29;20059;-54
2022/11/10 04:28:15;;;;;;;65.40;4.45;;;;;;;3.53;100.00;94549.19;4894264;29;21604;-53
2022/11/10 04:30:43;;;;;;;23.27;2.73;;;;;;;3.67;100.00;94546.78;4877851;29;20111;-55
2022/11/10 04:33:09;;;;;;;84.30;4.65;;;;;;;3.73;100.00;94556.19;4894996;29;20060;-55
2022/11/10 04:35:36;;;;;;;48.17;3.33;;;;;;;3.77;100.00;94548.91;4894884;29;20449;-55
2022/11/10 04:38:03;;;;;;;136.40;5.68;;;;;;;3.76;100.00;94555.50;4895079;29;20103;-55
2022/11/10 04:40:29;;;;;;;77.28;4.07;;;;;;;3.98;100.00;94548.59;4908700;29;20048;-54
2022/11/10 04:42:56;;;;;;;47.60;4.07;;;;;;;3.96;100.00;94544.63;4913323;29;20052;-57
2022/11/10 04:45:22;;;;;;;63.95;5.20;;;;;;;3.95;100.00;94551.22;4914067;29;20054;-51
2022/11/10 04:47:49;;;;;;;107.32;4.35;;;;;;;3.91;100.00;94556.56;4913400;29;20063;-49
2022/11/10 04:50:16;;;;;;;45.33;5.40;;;;;;;4.00;100.00;94553.63;4913621;29;20110;-51
2022/11/10 04:52:42;;;;;;;69.57;5.10;;;;;;;3.98;100.00;94556.72;4913294;29;20072;-50
2022/11/10 04:55:09;;;;;;;52.80;5.47;;;;;;;3.86;100.00;94562.28;4913476;29;20044;-55
2022/11/10 04:57:35;;;;;;;65.22;4.07;;;;;;;3.65;100.00;94567.28;4913273;29;20615;-54
2022/11/10 05:00:03;;;;;;;43.13;4.43;;;;;;;3.76;100.00;94577.22;4896611;29;20040;-50
2022/11/10 05:02:30;;;;;;;28.48;4.35;;;;;;;3.84;100.00;94585.50;4913740;29;20446;-54
2022/11/10 05:05:04;;;;;;;58.80;4.40;;;;;;;3.84;100.00;94589.00;4912585;29;20054;-52
2022/11/10 05:07:31;;;;;;;28.23;4.10;;;;;;;3.84;100.00;94601.78;4913852;29;20048;-53
2022/11/10 05:09:57;;;;;;;51.17;4.60;;;;;;;3.57;100.00;94610.53;4912170;29;20126;-54
2022/11/10 05:12:24;;;;;;;31.48;5.40;;;;;;;3.83;100.00;94619.25;4913497;29;20060;-54
2022/11/10 05:14:51;;;;;;;25.52;5.40;;;;;;;3.85;100.00;94615.03;4912728;29;20048;-53
2022/11/10 05:17:17;;;;;;;43.55;5.60;;;;;;;3.83;100.00;94614.59;4896690;29;20434;-57
2022/11/10 05:19:46;;;;;;;31.40;4.10;;;;;;;3.90;100.00;94614.72;4896093;29;20074;-54
2022/11/10 05:22:13;;;;;;;43.55;4.25;;;;;;;3.92;100.00;94617.09;4913232;29;20142;-56
2022/11/10 05:24:39;;;;;;;94.03;5.47;;;;;;;3.56;100.00;94614.41;4895840;29;20056;-55
2022/11/10 05:27:07;;;;;;;29.75;3.90;;;;;;;3.57;100.00;94618.66;4912653;29;20048;-53
2022/11/10 05:29:33;;;;;;;59.22;4.00;;;;;;;3.45;100.00;94621.50;4911504;29;20588;-56
2022/11/10 05:32:00;;;;;;;34.23;4.77;;;;;;;3.42;100.00;94626.84;4912454;29;20043;-52
2022/11/10 05:34:27;;;;;;;39.50;7.00;;;;;;;3.62;100.00;94630.41;4912935;29;20374;-55
2022/11/10 05:36:53;;;;;;;49.80;6.93;;;;;;;3.74;100.00;94639.22;4912209;29;20044;-59
2022/11/10 05:39:20;;;;;;;24.88;7.30;;;;;;;3.85;100.00;94641.38;4891406;29;20058;-57
2022/11/10 05:41:47;;;;;;;30.98;5.95;;;;;;;3.82;100.00;94640.16;4893225;29;20052;-53
2022/11/10 05:44:13;;;;;;;46.83;6.10;;;;;;;3.75;100.00;94646.22;4893709;29;20052;-53
2022/11/10 05:46:40;;;;;;;38.35;5.70;;;;;;;3.50;100.00;94644.84;4893526;29;20107;-54
2022/11/10 05:49:07;;;;;;;27.00;7.30;;;;;;;3.69;100.00;94652.28;4893708;29;20475;-53
2022/11/10 05:51:34;;;;;;;31.00;6.55;;;;;;;3.79;100.00;94649.78;4893190;29;20053;-57
2022/11/10 05:54:00;;;;;;;32.78;5.10;;;;;;;3.67;100.00;94665.41;4876732;29;20111;-55
2022/11/10 05:56:27;;;;;;;140.97;6.63;;;;;;;3.68;100.00;94659.66;4893793;29;20053;-53
2022/11/10 05:58:54;;;;;;;132.00;7.10;;;;;;;3.72;100.00;94657.81;4893021;29;20047;-55
2022/11/10 06:01:20;;;;;;;84.35;6.15;;;;;;;3.75;100.00;94667.16;4892731;29;20187;-52
2022/11/10 06:03:47;;;;;;;65.20;9.95;;;;;;;3.88;100.00;94665.09;4893187;29;20119;-53
2022/11/10 06:06:14;;;;;;;113.03;7.00;;;;;;;3.92;100.00;94663.25;4893471;29;20549;-52
2022/11/10 06:08:40;;;;;;;136.97;7.90;;;;;;;3.85;100.00;94665.81;4891746;29;20053;-50
2022/11/10 06:11:07;;;;;;;92.20;6.82;;;;;;;3.88;100.00;94668.59;4893074;29;20049;-52
2022/11/10 06:13:33;;;;;;;70.22;6.43;;;;;;;3.96;100.00;94669.56;4876016;29;20107;-54
2022/11/10 06:16:00;;;;;;;90.72;6.93;;;;;;;3.99;100.00;94672.34;4893054;29;20409;-52
2022/11/10 06:18:27;;;;;;;57.13;8.27;;;;;;;4.09;100.00;94686.53;4893156;29;20064;-49
2022/11/10 06:20:53;;;;;;;30.23;5.03;;;;;;;4.13;100.00;94698.25;4891511;29;20062;-55
2022/11/10 06:23:20;;;;;;;24.48;5.32;;;;;;;4.11;100.00;94690.47;4893153;29;20052;-53
2022/11/10 06:25:47;;;;;;;107.60;5.85;;;;;;;3.94;100.00;94693.56;4892801;29;20049;-56
2022/11/10 06:28:14;;;;;;;32.65;5.95;;;;;;;4.12;100.00;94697.44;4893292;29;20048;-54
2022/11/10 06:30:40;;;;;;;24.95;6.00;;;;;;;3.93;100.00;94695.50;4892912;29;20442;-52
2022/11/10 06:33:08;;;;;;;27.90;6.10;;;;;;;4.05;100.00;94691.88;4892980;29;20044;-51
2022/11/10 06:35:34;;;;;;;45.30;11.27;;;;;;;4.15;100.00;94690.53;4892653;29;20115;-51
2022/11/10 06:38:04;;;;;;;30.65;8.60;;;;;;;4.07;100.00;94694.25;4892804;29;20471;-56
2022/11/10 06:40:31;;;;;;;40.75;4.50;;;;;;;4.17;100.00;94701.84;4906366;29;20044;-53
2022/11/10 06:42:58;;;;;;;53.63;10.02;;;;;;;4.06;100.00;94703.53;4910934;29;20872;-52
2022/11/10 06:45:27;;;;;;;47.97;8.07;;;;;;;4.08;100.00;94712.88;4911738;29;20594;-56
2022/11/10 06:48:04;;;;;;;58.55;15.40;;;;;;;3.90;100.00;94709.75;4911392;29;20044;-54
2022/11/10 06:50:31;;;;;;;50.42;8.20;;;;;;;3.89;100.00;94721.78;4912025;29;20122;-52
2022/11/10 06:52:58;;;;;;;53.38;8.35;;;;;;;3.99;100.00;94737.53;4910808;29;20059;-55
2022/11/10 06:55:26;;;;;;;55.13;7.70;;;;;;;4.22;100.00;94741.50;4911509;29;20457;-50
2022/11/10 06:57:53;;;;;;;49.67;6.13;;;;;;;4.34;100.00;94753.03;4911265;29;20044;-53
2022/11/10 07:00:20;;;;;;;34.38;5.75;;;;;;;4.43;100.00;94754.78;4911205;29;20052;-52
2022/11/10 07:02:47;;;;;;;28.75;6.15;;;;;;;4.29;100.00;94763.41;4911114;29;20052;-51
2022/11/10 07:05:17;;;;;;;102.25;6.50;;;;;;;4.27;100.00;94763.00;4911386;29;20419;-55
2022/11/10 07:07:43;;;;;;;108.78;8.63;;;;;;;4.32;100.00;94762.69;4911216;29;20157;-54
2022/11/10 07:10:10;;;;;;;63.57;8.00;;;;;;;4.48;100.00;94762.66;4911431;29;20044;-51
2022/11/10 07:12:36;;;;;;;126.72;8.30;;;;;;;4.55;100.00;94770.97;4901617;29;20469;-52
2022/11/10 07:15:04;;;;;;;85.88;4.72;;;;;;;4.60;100.00;94776.91;4882425;29;20146;-51
2022/11/10 07:17:31;;;;;;;97.40;6.72;;;;;;;4.61;100.00;94777.72;4865776;29;20123;-52
2022/11/10 07:19:57;;;;;;;89.30;5.05;;;;;;;4.65;100.00;94789.44;4883826;29;20673;-55
2022/11/10 07:22:24;;;;;;;37.53;5.27;;;;;;;4.67;100.00;94802.66;4878182;29;20045;-54
2022/11/10 07:24:51;;;;;;;54.08;4.47;;;;;;;4.67;100.00;94802.66;4873767;29;20053;-54
2022/11/10 07:27:17;;;;;;;82.57;5.35;;;;;;;4.85;100.00;94812.00;4873976;29;20642;-52
2022/11/10 07:29:44;;;;;;;57.88;4.93;;;;;;;4.99;100.00;94811.53;4859126;29;20112;-51
2022/11/10 07:32:10;;;;;;;54.50;5.47;;;;;;;5.10;100.00;94806.28;4871711;29;20052;-54
2022/11/10 07:34:37;;;;;;;136.80;6.47;;;;;;;4.97;100.00;94822.75;4872510;29;20055;-52
2022/11/10 07:37:04;;;;;;;71.93;5.88;;;;;;;5.17;100.00;94828.19;4857008;29;20108;-52
2022/11/10 07:39:30;;;;;;;52.40;5.25;;;;;;;5.31;100.00;94827.66;4885410;29;20052;-49
2022/11/10 07:41:57;;;;;;;115.03;6.35;;;;;;;5.28;100.00;94837.34;4909786;29;20647;-54
2022/11/10 07:44:25;;;;;;;52.55;5.13;;;;;;;5.47;100.00;94847.44;4911389;29;20395;-53
2022/11/10 07:46:51;;;;;;;45.07;5.90;;;;;;;5.30;100.00;94848.66;4911217;29;20098;-54
2022/11/10 07:49:18;;;;;;;50.83;4.97;;;;;;;5.28;100.00;94844.72;4911304;29;20044;-51
2022/11/10 07:51:44;;;;;;;80.30;5.47;;;;;;;5.44;100.00;94852.81;4910956;29;20048;-53
2022/11/10 07:54:11;;;;;;;36.40;4.95;;;;;;;5.54;100.00;94847.56;4914627;29;20070;-54
2022/11/10 07:56:38;;;;;;;55.40;6.57;;;;;;;5.39;100.00;94843.00;4914486;29;20052;-52
2022/11/10 07:59:05;;;;;;;83.97;6.43;;;;;;;5.64;100.00;94842.69;4882224;29;20046;-53
2022/11/10 08:01:32;;;;;;;35.55;4.95;;;;;;;5.71;100.00;94853.72;4897201;29;20687;-55
2022/11/10 08:03:59;;;;;;;70.70;5.13;;;;;;;5.59;100.00;94857.38;4914381;29;20146;-52
2022/11/10 08:06:26;;;;;;;61.28;5.43;;;;;;;5.69;100.00;94856.78;4897348;29;20095;-51
2022/11/10 08:08:55;;;;;;;99.00;5.70;;;;;;;5.92;100.00;94865.00;4882746;29;20048;-52
2022/11/10 08:11:22;;;;;;;19.03;3.70;;;;;;;5.99;100.00;94858.91;4914219;29;20048;-53
2022/11/10 08:13:48;;;;;;;56.78;4.63;;;;;;;5.59;100.00;94868.25;4913952;29;20056;-54
2022/11/10 08:16:15;;;;;;;133.13;6.70;;;;;;;5.33;100.00;94869.72;4914243;29;20050;-54
2022/11/10 08:18:42;;;;;;;45.03;5.00;;;;;;;5.59;100.00;94876.44;4896941;29;20055;-56
2022/11/10 08:21:08;;;;;;;49.45;5.80;;;;;;;6.06;100.00;94878.13;4914157;29;20044;-55
2022/11/10 08:23:35;;;;;;;55.87;4.30;;;;;;;6.00;100.00;94872.19;4914071;29;20656;-56
2022/11/10 08:26:02;;;;;;;52.33;4.22;;;;;;;6.00;100.00;94883.06;4914389;29;20066;-53
2022/11/10 08:28:29;;;;;;;34.22;4.10;;;;;;;5.88;100.00;94885.16;4914482;29;20083;-51
2022/11/10 08:30:55;;;;;;;103.43;6.65;;;;;;;5.73;100.00;94890.31;4913577;29;20048;-51
2022/11/10 08:33:28;;;;;;;52.30;4.45;;;;;;;6.16;100.00;94899.31;4914350;29;20044;-51
2022/11/10 08:35:54;;;;;;;100.97;6.27;;;;;;;5.95;100.00;94901.66;4913490;29;20042;-54
2022/11/10 08:38:23;;;;;;;113.03;6.13;;;;;;;5.97;100.00;94902.84;4913657;29;20056;-56
2022/11/10 08:40:49;;;;;;;58.40;4.55;;;;;;;6.45;100.00;94913.41;4897689;29;20057;-51
2022/11/10 08:43:17;;;;;;;31.55;4.00;;;;;;;6.83;100.00;94911.69;4894910;29;20058;-55
2022/11/10 08:45:44;;;;;;;69.65;5.03;;;;;;;6.93;100.00;94905.59;4894763;29;20062;-56
2022/11/10 08:48:16;;;;;;;59.33;6.40;;;;;;;7.08;100.00;94906.56;4895167;29;20059;-54
2022/11/10 08:50:43;;;;;;;82.50;6.72;;;;;;;6.59;100.00;94919.09;4894672;29;20108;-53
2022/11/10 08:53:12;;;;;;;109.07;7.80;;;;;;;6.79;100.00;94906.16;4894912;29;20048;-57
2022/11/10 08:55:39;;;;;;;51.70;6.93;;;;;;;6.80;100.00;94912.41;4894441;29;20055;-51
2022/11/10 08:58:09;;;;;;;120.90;8.55;;;;;;;6.79;100.00;94906.16;4894829;29;20048;-53
2022/11/10 09:00:35;;;;;;;38.10;5.87;;;;;;;6.88;100.00;94908.66;4894506;29;20474;-56
2022/11/10 09:03:05;;;;;;;81.90;5.75;;;;;;;7.08;100.00;94914.75;4894627;29;20085;-52
2022/11/10 09:05:34;;;;;;;52.00;5.13;;;;;;;7.03;100.00;94911.59;4893618;29;20075;-53
2022/11/10 09:08:02;;;;;;;33.60;4.90;;;;;;;7.00;100.00;94913.09;4894959;29;20044;-52
2022/11/10 09:10:30;;;;;;;35.63;4.88;;;;;;;7.16;100.00;94912.91;4894702;29;20045;-52
2022/11/10 09:12:59;;;;;;;36.63;4.67;;;;;;;7.39;100.00;94921.03;4893842;29;21642;-50
2022/11/10 09:15:26;;;;;;;21.65;4.05;;;;;;;7.45;100.00;94930.47;4894392;29;20048;-53
2022/11/10 09:17:53;;;;;;;20.55;4.05;;;;;;;7.74;100.00;94922.63;4894145;29;20091;-51
2022/11/10 09:20:20;;;;;;;9.88;3.53;;;;;;;8.32;99.98;94922.06;4877808;29;20099;-53
2022/11/10 09:22:47;;;;;;;9.35;2.80;;;;;;;8.33;97.25;94928.31;4894054;29;20052;-51
2022/11/10 09:25:13;;;;;;;16.07;4.63;;;;;;;9.00;96.24;94935.59;4894388;29;20060;-54
2022/11/10 09:27:40;;;;;;;6.72;2.97;;;;;;;9.55;91.44;94930.03;4877148;29;20044;-49
2022/11/10 09:30:07;;;;;;;8.77;3.80;;;;;;;9.69;91.74;94942.25;4894334;29;20447;-52
2022/11/10 09:32:45;;;;;;;14.95;4.50;;;;;;;9.56;88.76;94942.56;4893623;29;20048;-50
2022/11/10 09:35:12;;;;;;;15.13;4.90;;;;;;;11.51;82.77;94943.66;4894129;29;20047;-56
2022/11/10 09:37:39;;;;;;;5.13;2.97;;;;;;;11.06;82.95;94955.09;4893848;29;20055;-52
2022/11/10 09:40:16;;;;;;;4.20;2.20;;;;;;;13.13;73.92;94951.88;4904317;29;20048;-52
2022/11/10 09:42:45;;;;;;;7.90;4.40;;;;;;;14.62;70.34;94956.16;4912615;29;20099;-56
2022/11/10 09:45:27;;;;;;;5.22;2.83;;;;;;;14.03;65.95;94951.00;4912980;29;20060;-52
2022/11/10 09:47:59;;;;;;;5.03;2.95;;;;;;;12.75;70.77;94955.28;4912518;29;20044;-49
2022/11/10 09:51:00;;;;;;;4.97;2.20;;;;;;;11.89;75.74;94966.78;4912836;29;20090;-52
2022/11/10 09:53:34;;;;;;;10.30;3.70;;;;;;;12.08;76.15;94964.72;4911584;29;20836;-51
2022/11/10 09:56:05;;;;;;;8.48;3.60;;;;;;;11.64;76.16;94964.06;4911656;29;21670;-52
2022/11/10 09:58:40;;;;;;;4.35;2.30;;;;;;;11.33;79.59;94973.94;4912169;29;20062;-49
2022/11/10 10:01:26;;;;;;;5.05;2.53;;;;;;;12.89;72.68;94953.63;4912639;29;20044;-54
2022/11/10 10:04:36;;;;;;;5.70;3.17;;;;;;;13.22;70.57;94957.72;4912379;29;20043;-55
2022/11/10 10:07:14;;;;;;;5.88;3.10;;;;;;;13.30;70.60;94973.03;4911466;29;20627;-54
2022/11/10 10:09:54;;;;;;;6.45;3.65;;;;;;;12.09;74.66;94966.28;4911949;29;20047;-52
2022/11/10 10:12:23;;;;;;;6.07;3.35;;;;;;;12.92;71.85;94969.38;4912218;29;20052;-54
2022/11/10 10:15:08;;;;;;;6.07;3.55;;;;;;;13.51;69.78;94979.53;4911628;29;20107;-54
2022/11/10 10:18:00;;;;;;;8.43;3.70;;;;;;;12.71;72.92;94984.84;4895066;29;20048;-55
2022/11/10 10:20:47;;;;;;;7.03;3.50;;;;;;;13.25;70.04;94986.44;4912069;29;20486;-55
2022/11/10 10:23:26;;;;;;;7.05;3.13;;;;;;;15.24;64.04;94984.47;4911191;29;21674;-55
2022/11/10 10:26:16;;;;;;;6.25;2.95;;;;;;;15.80;62.21;94981.16;4911321;29;20632;-54
2022/11/10 10:28:45;;;;;;;5.20;2.90;;;;;;;16.51;58.41;94973.41;4911925;29;20048;-55
2022/11/10 10:31:25;;;;;;;9.07;4.10;;;;;;;19.00;52.74;94971.44;4911651;29;20106;-55
2022/11/10 10:33:53;;;;;;;6.80;3.80;;;;;;;18.08;54.02;94965.31;4911737;29;20071;-56
2022/11/10 10:36:27;;;;;;;5.15;2.35;;;;;;;18.69;51.18;94966.38;4911717;29;20481;-54
2022/11/10 10:39:09;;;;;;;6.45;3.63;;;;;;;18.52;51.09;94971.22;4910449;29;20493;-53
2022/11/10 10:41:37;;;;;;;6.75;3.40;;;;;;;17.03;55.26;94973.91;4892888;29;20049;-55
2022/11/10 10:44:13;;;;;;;6.60;3.33;;;;;;;17.68;53.28;94976.66;4893392;29;20258;-52
2022/11/10 10:46:57;;;;;;;6.53;3.25;;;;;;;16.78;56.89;94973.25;4893000;29;20417;-56
2022/11/10 10:49:28;;;;;;;8.32;3.90;;;;;;;17.70;54.21;94973.47;4893040;29;20380;-53
2022/11/10 10:52:14;;;;;;;4.55;2.70;;;;;;;17.48;52.99;94979.53;4892462;29;20596;-56
2022/11/10 10:54:41;;;;;;;6.32;3.03;;;;;;;18.28;52.33;94981.06;4892510;29;20390;-56
2022/11/10 10:57:29;;;;;;;5.60;2.83;;;;;;;18.91;51.57;94965.75;4893164;29;20100;-54
2022/11/10 11:00:21;;;;;;;6.13;2.63;;;;;;;20.53;45.76;94964.66;4892385;29;20393;-53
2022/11/10 11:03:09;;;;;;;8.45;4.13;;;;;;;19.79;46.93;94963.31;4892624;29;20052;-54
2022/11/10 11:05:36;;;;;;;4.60;2.30;;;;;;;20.41;45.34;94959.16;4875816;29;20056;-57
2022/11/10 11:08:03;;;;;;;5.28;2.42;;;;;;;20.75;45.08;94964.66;4892969;29;20040;-56
2022/11/10 11:10:32;;;;;;;5.50;1.90;;;;;;;21.32;43.13;94952.50;4876207;29;20063;-58
2022/11/10 11:13:21;;;;;;;3.50;1.50;;;;;;;20.21;42.73;94959.50;4892081;29;20877;-56
2022/11/10 11:15:58;;;;;;;4.10;1.35;;;;;;;21.03;41.72;94950.84;4892463;29;20109;-56
2022/11/10 11:18:28;;;;;;;4.63;1.80;;;;;;;22.25;39.90;94957.00;4892777;29;20053;-54
2022/11/10 11:20:59;;;;;;;3.00;1.58;;;;;;;21.49;39.46;94947.44;4892413;29;20048;-56
2022/11/10 11:23:39;;;;;;;5.20;1.60;;;;;;;21.13;41.30;94944.06;4892858;29;20056;-56
2022/11/10 11:26:18;;;;;;;5.45;1.92;;;;;;;20.66;41.49;94947.88;4892208;29;21161;-57
2022/11/10 11:29:19;;;;;;;7.97;2.00;;;;;;;21.78;40.24;94949.06;4895635;29;20064;-56
2022/11/10 11:32:11;;;;;;;4.95;1.60;;;;;;;22.19;39.30;94942.06;4895916;29;20063;-54
2022/11/10 11:34:56;;;;;;;5.78;1.80;;;;;;;21.42;41.39;94942.13;4895687;29;20044;-54
2022/11/10 11:37:44;;;;;;;5.70;1.90;;;;;;;21.50;39.94;94946.22;4896286;29;20049;-56
2022/11/10 11:40:36;;;;;;;3.70;2.00;;;;;;;20.98;40.20;94945.09;4906507;29;20198;-55
2022/11/10 11:43:12;;;;;;;2.78;1.20;;;;;;;20.51;40.58;94952.41;4914356;29;20425;-52
2022/11/10 11:46:09;;;;;;;4.07;1.75;;;;;;;21.17;39.20;94955.09;4914463;29;20052;-54
2022/11/10 11:48:54;;;;;;;5.70;2.55;;;;;;;21.14;38.53;94953.22;4914837;29;20103;-50
2022/11/10 11:51:35;;;;;;;5.30;1.77;;;;;;;19.10;41.71;94961.97;4915333;29;20056;-56
2022/11/10 11:54:27;;;;;;;2.72;1.15;;;;;;;17.61;43.37;94964.97;4897435;29;21877;-55
2022/11/10 11:57:15;;;;;;;3.10;0.90;;;;;;;15.53;49.26;94970.94;4914421;29;20040;-54
2022/11/10 11:59:41;;;;;;;2.42;0.82;;;;;;;14.62;49.59;94974.72;4914242;29;20052;-55